Eastern Galaxy — DUCH — position and weather

sailwx.info

Track history (hours):
 
Tides and Currents Weather Stations Pressure Air Temp Water Temp Dewpoint Dewpoint Depression Visibility Wind Speed Wind Dir Waves Ship Positions

Eastern Galaxy

Last reported at 2014-Jun-12 15:11 UTC. Time now 2014-Jul-22 17:26 UTC.
Position N 34°44' E 139°11'.
Warning: this ship's position is 40 days out of date.

Length 100 m; draft 5.4 m.

Type: Cargo ship. MMSI: 548829000.

Date/timePositionNaut miles runAvg speedWind from/ knotsBaromVisibWave heightAir tempDewpointWater temp
2014-Jun-12 15:11N 34°44' E 139°11'811.8
2014-Jun-12 14:32N 34°50' E 139°16'1010.4
2014-Jun-12 13:33N 34°56' E 139°26'1010.3
2014-Jun-12 12:33N 35°02' E 139°37'1111.1
2014-Jun-12 11:33N 35°10' E 139°46'1211.7
2014-Jun-12 10:33N 35°21' E 139°42'6 5.8
2014-Jun-12 09:28N 35°28' E 139°42'0 0.0
2014-Jun-12 08:31N 35°28' E 139°42'0 0.0
2014-Jun-12 07:31N 35°28' E 139°42'0 0.0
2014-Jun-12 06:31N 35°28' E 139°42'0 0.0
2014-Jun-12 05:31N 35°28' E 139°42'0 0.0
2014-Jun-12 04:31N 35°28' E 139°42'0 0.0
2014-Jun-12 03:31N 35°28' E 139°42'0 0.0
2014-Jun-12 02:31N 35°28' E 139°42'0 0.0
2014-Jun-12 01:31N 35°28' E 139°42'0 0.0
2014-Jun-12 00:28N 35°28' E 139°42'0 0.0
2014-Jun-11 23:31N 35°28' E 139°42'0 0.0
2014-Jun-11 22:22N 35°28' E 139°42'0 0.0
2014-Jun-11 21:31N 35°28' E 139°42'0 0.0
2014-Jun-11 20:28N 35°28' E 139°42'0 0.0
2014-Jun-11 19:28N 35°28' E 139°42'0 0.0
2014-Jun-11 18:28N 35°28' E 139°42'0 0.0
2014-Jun-11 17:31N 35°28' E 139°42'0 0.0
2014-Jun-11 16:31N 35°28' E 139°42'0 0.0
2014-Jun-11 15:31N 35°28' E 139°42'0 0.0
2014-Jun-11 14:31N 35°28' E 139°42'0 0.0
2014-Jun-11 13:31N 35°28' E 139°42'0 0.0
2014-Jun-11 12:28N 35°28' E 139°42'0 0.0
2014-Jun-11 11:31N 35°28' E 139°42'0 0.0
2014-Jun-11 10:31N 35°28' E 139°42'0 0.0
2014-Jun-11 09:31N 35°28' E 139°42'0 0.0
2014-Jun-11 08:31N 35°28' E 139°42'0 0.0
2014-Jun-11 07:28N 35°28' E 139°42'0 0.0
2014-Jun-11 06:31N 35°28' E 139°42'0 0.0
2014-Jun-11 05:31N 35°28' E 139°42'0 0.0
2014-Jun-11 04:31N 35°28' E 139°42'0 0.0
2014-Jun-11 03:31N 35°28' E 139°42'0 0.0
2014-Jun-11 02:31N 35°28' E 139°42'4 4.0
2014-Jun-11 01:33N 35°25' E 139°45'10 9.9
2014-Jun-11 00:33N 35°16' E 139°47'1110.9
2014-Jun-10 23:33N 35°05' E 139°45'1111.0
2014-Jun-10 22:33N 34°54' E 139°45'1010.2
2014-Jun-10 21:33N 34°51' E 139°57'1111.3
2014-Jun-10 20:33N 34°56' E 140°09'1211.8
2014-Jun-10 19:33N 35°02' E 140°22'10 9.0
2014-Jun-10 18:24N 35°07' E 140°33'16 8.8
2014-Jun-10 16:33N 35°19' E 140°47'1210.3
2014-Jun-10 15:24N 35°30' E 140°52'1212.2
2014-Jun-10 14:28N 35°39' E 140°59'1011.4
2014-Jun-10 13:33N 35°50' E 140°57'1211.8
2014-Jun-10 12:33N 36°00' E 140°50'15 0.4
2014-Jun-08 21:33N 36°15' E 140°46'1 0.1
2014-Jun-08 10:33N 36°14' E 140°46'6 5.5
2014-Jun-08 09:33N 36°08' E 140°48'1212.0
2014-Jun-08 08:33N 35°57' E 140°53'1211.6
2014-Jun-08 07:33N 35°46' E 140°58'1110.6
2014-Jun-08 06:33N 35°36' E 140°56'1111.0
2014-Jun-08 05:33N 35°26' E 140°49'1211.7
2014-Jun-08 04:31N 35°17' E 140°40'1313.2
2014-Jun-08 03:34N 35°07' E 140°30'1414.0
2014-Jun-08 02:33N 34°58' E 140°17'1313.3
2014-Jun-08 01:33N 34°49' E 140°04'1412.0
2014-Jun-08 00:20N 34°44' E 139°48'  
Track history (hours):
 
Tides and Currents Weather Stations Pressure Air Temp Water Temp Dewpoint Dewpoint Depression Visibility Wind Speed Wind Dir Waves Ship Positions

Eastern Galaxy

Last reported at 2014-Jun-12 15:11 UTC. Time now 2014-Jul-22 17:26 UTC.
Position N 34°44' E 139°11'.
Warning: this ship's position is 40 days out of date.

Length 100 m; draft 5.4 m.

Type: Cargo ship. MMSI: 548829000.

Date/timePositionNaut miles runAvg speedWind from/ knotsBaromVisibWave heightAir tempDewpointWater temp
2014-Jun-12 15:11N 34°44' E 139°11'811.8
2014-Jun-12 14:32N 34°50' E 139°16'1010.4
2014-Jun-12 13:33N 34°56' E 139°26'1010.3
2014-Jun-12 12:33N 35°02' E 139°37'1111.1
2014-Jun-12 11:33N 35°10' E 139°46'1211.7
2014-Jun-12 10:33N 35°21' E 139°42'6 5.8
2014-Jun-12 09:28N 35°28' E 139°42'0 0.0
2014-Jun-12 08:31N 35°28' E 139°42'0 0.0
2014-Jun-12 07:31N 35°28' E 139°42'0 0.0
2014-Jun-12 06:31N 35°28' E 139°42'0 0.0
2014-Jun-12 05:31N 35°28' E 139°42'0 0.0
2014-Jun-12 04:31N 35°28' E 139°42'0 0.0
2014-Jun-12 03:31N 35°28' E 139°42'0 0.0
2014-Jun-12 02:31N 35°28' E 139°42'0 0.0
2014-Jun-12 01:31N 35°28' E 139°42'0 0.0
2014-Jun-12 00:28N 35°28' E 139°42'0 0.0
2014-Jun-11 23:31N 35°28' E 139°42'0 0.0
2014-Jun-11 22:22N 35°28' E 139°42'0 0.0
2014-Jun-11 21:31N 35°28' E 139°42'0 0.0
2014-Jun-11 20:28N 35°28' E 139°42'0 0.0
2014-Jun-11 19:28N 35°28' E 139°42'0 0.0
2014-Jun-11 18:28N 35°28' E 139°42'0 0.0
2014-Jun-11 17:31N 35°28' E 139°42'0 0.0
2014-Jun-11 16:31N 35°28' E 139°42'0 0.0
2014-Jun-11 15:31N 35°28' E 139°42'0 0.0
2014-Jun-11 14:31N 35°28' E 139°42'0 0.0
2014-Jun-11 13:31N 35°28' E 139°42'0 0.0
2014-Jun-11 12:28N 35°28' E 139°42'0 0.0
2014-Jun-11 11:31N 35°28' E 139°42'0 0.0
2014-Jun-11 10:31N 35°28' E 139°42'0 0.0
2014-Jun-11 09:31N 35°28' E 139°42'0 0.0
2014-Jun-11 08:31N 35°28' E 139°42'0 0.0
2014-Jun-11 07:28N 35°28' E 139°42'0 0.0
2014-Jun-11 06:31N 35°28' E 139°42'0 0.0
2014-Jun-11 05:31N 35°28' E 139°42'0 0.0
2014-Jun-11 04:31N 35°28' E 139°42'0 0.0
2014-Jun-11 03:31N 35°28' E 139°42'0 0.0
2014-Jun-11 02:31N 35°28' E 139°42'4 4.0
2014-Jun-11 01:33N 35°25' E 139°45'10 9.9
2014-Jun-11 00:33N 35°16' E 139°47'1110.9
2014-Jun-10 23:33N 35°05' E 139°45'1111.0
2014-Jun-10 22:33N 34°54' E 139°45'1010.2
2014-Jun-10 21:33N 34°51' E 139°57'1111.3
2014-Jun-10 20:33N 34°56' E 140°09'1211.8
2014-Jun-10 19:33N 35°02' E 140°22'10 9.0
2014-Jun-10 18:24N 35°07' E 140°33'16 8.8
2014-Jun-10 16:33N 35°19' E 140°47'1210.3
2014-Jun-10 15:24N 35°30' E 140°52'1212.2
2014-Jun-10 14:28N 35°39' E 140°59'1011.4
2014-Jun-10 13:33N 35°50' E 140°57'1211.8
2014-Jun-10 12:33N 36°00' E 140°50'15 0.4
2014-Jun-08 21:33N 36°15' E 140°46'1 0.1
2014-Jun-08 10:33N 36°14' E 140°46'6 5.5
2014-Jun-08 09:33N 36°08' E 140°48'1212.0
2014-Jun-08 08:33N 35°57' E 140°53'1211.6
2014-Jun-08 07:33N 35°46' E 140°58'1110.6
2014-Jun-08 06:33N 35°36' E 140°56'1111.0
2014-Jun-08 05:33N 35°26' E 140°49'1211.7
2014-Jun-08 04:31N 35°17' E 140°40'1313.2
2014-Jun-08 03:34N 35°07' E 140°30'1414.0
2014-Jun-08 02:33N 34°58' E 140°17'1313.3
2014-Jun-08 01:33N 34°49' E 140°04'1412.0
2014-Jun-08 00:20N 34°44' E 139°48'  

Dump ship's entire track history